RMK

Tweets about a recent trend: RMK

@L_6ckA @ryokatwi 手の筋ご馳走様です😋🍴❤️ 2枚目ロカ様の絶対領域💜💜💜 https://t.co/BXmnxVXva7
RT @uwasa_company: 《プレゼント企画》 「UWASA福袋B」 【 #MAC + #RMK + #ADDICTION + #shuuemura +α】 UWASA公式アカウント (@uwasa_company)をフォロー&RTで応募完了💖❣️ 〆切▷1… https://t.co/TpcUuGcpRx
RT @uwasa_company: 《プレゼント企画》 「UWASA福袋B」 【 #MAC + #RMK + #ADDICTION + #shuuemura +α】 UWASA公式アカウント (@uwasa_company)をフォロー&RTで応募完了💖❣️ 〆切▷1… https://t.co/TpcUuGcpRx
RT @uwasa_company: 《プレゼント企画》 「UWASA福袋B」 【 #MAC + #RMK + #ADDICTION + #shuuemura +α】 UWASA公式アカウント (@uwasa_company)をフォロー&RTで応募完了💖❣️ 〆切▷1… https://t.co/TpcUuGcpRx
RT @uwasa_company: 《プレゼント企画》 「UWASA福袋B」 【 #MAC + #RMK + #ADDICTION + #shuuemura +α】 UWASA公式アカウント (@uwasa_company)をフォロー&RTで応募完了💖❣️ 〆切▷1… https://t.co/TpcUuGcpRx
@RMK_BTS_1107 ふといのとほそいのどっちが好み??
RT @L_6ckA: 今日は姫庭のライブを観に、 新宿ReNYに行ってきました! りょうかちゃんとは実はお友達なのだ☺︎ イメージカラーが赤だって言うから 赤❤️のインナーニットに 赤❤️のパーカーに 赤❤️のアウターニットで 揃えていきました笑… https://t.co/RVOEtolW93
RT @__ranon: NARSのオーデイシャスリップスティックデビューはNARSの9459 ANNAにした!RMKのローズレトロの色味が好きで、こんなモーヴ系のリップがあったらなぁと思ってたらANNAに出会った! https://t.co/5HVXcpIlGB
RT @uwasa_company: 《プレゼント企画》 「UWASA福袋B」 【 #MAC + #RMK + #ADDICTION + #shuuemura +α】 UWASA公式アカウント (@uwasa_company)をフォロー&RTで応募完了💖❣️ 〆切▷1… https://t.co/TpcUuGcpRx
SKBO 191500Z 27003KT 7000 SCT020 17/11 A3034 RMK HZ
SKPE 191500Z 26004KT 7000 BKN007 SCT080 20/19 A3011 RMK HZ AD OPER IMC
SKLT 191500Z 00000KT 4000 -TSRA SCT010CB OVC070 23/23 A2987 RMK AD CB/NE/S AD OPER IMC
HSM マンマ・ミーア プリティープリンセス プラダを着た悪魔 ハンナ・モンタナ キャンプロック 好きな映画合ったら是非フォローしてね!これは定期です #洋画
SKTI 191500Z 31003KT 8000 FEW020 SCT045 26/22 A2996 RMK HZ/S =
RJAA 191500Z 34008KT 9999 FEW040 M01/M06 Q1016 NOSIG RMK 1SC040 A3003
ROAH 191500Z 35013KT 9999 FEW020 SCT060 BKN130 20/15 Q1017 RMK 2CU020 4SC060 6AC130 A3005
RJFF 191500Z 16003KT 8000 FEW025 SCT050 BKN080 08/02 Q1016 RMK 1CU025 4SC050 6AC080 A3002
RJCC 191500Z VRB01KT 5000 BCFG BR FEW003 SCT010 BKN040 M13/M14 Q1017 RMK 1ST003 3ST010 5CU040 A3003
RT @L_6ckA: 今日は姫庭のライブを観に、 新宿ReNYに行ってきました! りょうかちゃんとは実はお友達なのだ☺︎ イメージカラーが赤だって言うから 赤❤️のインナーニットに 赤❤️のパーカーに 赤❤️のアウターニットで 揃えていきました笑… https://t.co/RVOEtolW93